Tiempo atmosférico en la estación meteorológica de Palacios De La Sierra, Burgos (1080 m.)



Fecha
DESCASC
Temp. máxima en grados centígrados (hora)
DESCASC
Temp. mínima en grados centígrados (hora)
DESCASC
Temp. media en grados centígrados
DESCASC
Racha de viento máxima en m/sg (hora)
DESCASC
Velocidad máxima media en intervalos de 10 minutos(hora)
DESCASC
Precipitaciones diarias en mm
DESCASC
Precipitaciones de 00:00 a 06:00 en mm
DESCASC
Precipitaciones de 06:00 a 12:00 en mm
DESCASC
Precipitaciones de 12:00 a 18:00 en mm
DESCASC
Precipitaciones de 18:00 a 24:00 en mm
DESCASC
26-03-2020 7.9 (12:20) -3.5 (06:00) 2.2 -- (--) -- (--) 0 0 0 0 0
25-03-2020 14.8 (14:40) -2.7 (07:20) 6.1 -- (--) -- (--) 0 0 0 0 0
24-03-2020 13.8 (15:40) 2.7 (23:59) 8.3 15.83 (09:20) 6.67 (11:20) 0 0 0 0 0
23-03-2020 13 (15:10) -1.2 (06:50) 5.9 11.11 (14:10) 6.67 (18:10) 0 0 0 0 0
22-03-2020 14.6 (14:20) 1.6 (23:59) 8.1 -- (--) -- (--) 0.6 0 0 0.6 0
21-03-2020 11.6 (17:00) 5.3 (00:00) 8.5 -- (--) -- (--) 0 0 0 0 0
20-03-2020 11.8 (15:20) 6.2 (00:00) 9 -- (--) -- (--) 0 0 0 0 0
19-03-2020 14.6 (13:50) 2.8 (00:00) 8.7 -- (--) -- (--) 0 0 0 0 0
18-03-2020 16.5 (14:00) 3.4 (00:00) 10 8.61 (11:50) 5.56 (11:50) 0 0 0 0 0
17-03-2020 10.6 (13:40) 4.7 (00:00) 7.7 -- (--) -- (--) 0 0 0 0 0
16-03-2020 7 (00:00) 1.3 (00:00) 4.1 -- (--) -- (--) 9.6 8 0.8 0.2 0.6
15-03-2020 18.2 (14:50) -1 (-00:0) 8.6 10.83 (13:20) 5.83 (13:10) -- 0 0 2.8 --
14-03-2020 18.1 (16:40) -0.2 (00:00) 9 7.5 (12:50) 5 (12:50) 0 0 0 0 0
13-03-2020 17.8 (15:40) 4.7 (07:50) 11.2 8.06 (18:00) 5.28 (17:40) 0 0 0 0 0
12-03-2020 22.8 (14:10) 4.2 (00:00) 13.5 10.56 (14:20) 5.83 (14:20) 0 0 0 0 0
11-03-2020 22.1 (17:10) 0.3 (00:00) 11.2 8.33 (16:30) 4.72 (15:50) 0 0 0 0 0
10-03-2020 18.4 (16:50) 1.8 (00:00) 10.1 7.78 (13:00) 5 (00:10) 0 0 0 0 0
09-03-2020 11.7 (15:00) 3.1 (00:00) 7.4 12.22 (16:50) 6.67 (16:40) 0 0 0 0 0
08-03-2020 11.8 (16:20) -3.5 (-00:0) 4.2 9.44 (14:00) 4.72 (14:00) 0 0 0 0 0
07-03-2020 10.1 (15:10) -0.2 (00:00) 5 14.17 (03:40) 8.33 (03:50) 0.6 0 0.6 0 0
06-03-2020 5.4 (15:40) 0 (00:00) 2.7 16.67 (09:50) 9.72 (21:20) 2 0.8 0 1.2 0
05-03-2020 9.3 (16:20) 1.7 (00:00) 5.5 21.39 (11:00) 11.67 (11:00) 9.4 0.4 3.8 5 0.2
04-03-2020 11.3 (14:30) 5.3 (00:00) 8.3 12.22 (09:20) 6.11 (10:00) 2 1 1 0 0
03-03-2020 14.2 (15:50) 0.1 (00:00) 7.1 25 (16:30) 12.5 (16:30) 12.2 1.8 10.2 0.2 0
02-03-2020 8.4 (00:50) 0.7 (00:00) 4.5 26.39 (01:50) 12.78 (06:00) 16.2 15.4 0 0.8 0
01-03-2020 11.5 (14:20) 4.1 (00:00) 7.8 15.28 (20:50) 6.67 (13:30) 16 1.8 1.4 0 12.8
29-02-2020 11 (15:20) 0.7 (00:00) 5.8 18.33 (16:20) 10 (16:20) 0.2 0 0 0.2 0
28-02-2020 15.6 (15:50) -2.2 (-00:0) 6.7 7.5 (23:30) 3.89 (23:30) 0 0 0 0 0

Gráficas

Temp. máximas Temp. mínimas Temp. medias Precipitaciones Rachas de viento máximas Velocidades máximas media en intervalos de 10 minutos

Datos horarios

Fecha y hora oficial Temperatura (ºC) Velocidad del viento (km/h) Dirección del viento Racha (km/h) Dirección de racha Precipitación (mm) Presión (hPa) Tendencia (hPa) Humedad (%)
2020-03-28 23:00:00 4.6 2 Este 9 Sur 0 896.1 1.5 65
2020-03-28 22:00:00 6.9 0 Calma 10 Sudeste 0 895.9 1.9 55
2020-03-28 21:00:00 9.6 6 Sudeste 16 Sudoeste 0 895.3 1.7 45
2020-03-28 20:00:00 11.1 8 Sudoeste 15 Oeste 0 894.6 1.3 41
2020-03-28 19:00:00 13.7 9 Oeste 13 Oeste 0 894 0.5 31
2020-03-28 18:00:00 13.5 5 Sudoeste 13 Sur 0 893.6 0.1 32
2020-03-28 17:00:00 13.9 8 Sur 21 Sudeste 0 893.3 -0.5 30
2020-03-28 16:00:00 13.8 8 Noroeste 24 Oeste 0 893.5 -0.7 30
2020-03-28 15:00:00 14.1 12 Oeste 27 Oeste 0 893.5 -1.1 30
2020-03-28 14:00:00 14.8 12 Oeste 26 Oeste 0 893.8 -1.1 29
2020-03-28 13:00:00 13.1 8 Norte 21 Noroeste 0 894.2 -0.6 30
2020-03-28 12:00:00 11.7 8 Oeste 22 Noroeste 0 894.6 0 33
2020-03-28 11:00:00 10.4 7 Noroeste 15 Noroeste 0 894.9 0.5 35
2020-03-28 10:00:00 7.2 2 Nordeste 6 Noroeste 0 894.8 0.6 43
2020-03-28 09:00:00 2.1 3 Este 14 Sur 0 894.6 0.9 58
2020-03-28 08:00:00 -2.5 3 Sudeste 14 Sur 0 894.4 1 71
2020-03-28 07:00:00 -4.3 3 Sudeste 14 Sur 0 894.2 1.1 78
2020-03-28 06:00:00 -4.1 6 Sur 15 Sur 0 893.7 0.6 78
2020-03-28 05:00:00 -3.9 2 Sudeste 17 Sur 0 893.4 0.4 78
2020-03-28 04:00:00 -3.1 10 Sur 25 Sudeste 0 893.1 0.3 76
2020-03-28 03:00:00 -2.6 7 Sur 12 Sur 0 893.1 0.6 76
2020-03-28 02:00:00 -2 3 Sudeste 13 Sur 0 893 0.8 74
2020-03-28 01:00:00 -1.4 6 Sudeste 13 Sur 0 892.8 1 71
2020-03-28 00:00:00 -0.3 3 Sudeste 9 Sur 0 892.5 1.1 67
2020-03-27 23:00:00 1 2 Sur 12 Sur 0 892.2 1.6 63
2020-03-27 22:00:00 4.1 6 Sur 21 Sur 0 891.8 2.1 48
2020-03-27 21:00:00 4.8 12 Sudeste 19 Sudeste 0 891.4 2.3 48
2020-03-27 20:00:00 6.9 11 Sudeste 23 Sudeste 0 890.6 2 41
2020-03-27 19:00:00 8.7 11 Sudeste 27 Sudeste 0 889.7 1.2 32
2020-03-27 18:00:00 10.3 12 Sudeste 34 Sudeste 0 889.1 0.6 28
2020-03-27 17:00:00 11.1 12 Sudeste 37 Sudeste 0 888.6 -0.1 27
2020-03-27 16:00:00 11.4 15 Sur 37 Este 0 888.5 -0.6 26
2020-03-27 15:00:00 10.9 18 Sudeste 41 Sudeste 0 888.5 -1.1 22
2020-03-27 14:00:00 10.4 15 Sudeste 38 Sur 0 888.7 -1.1 24
2020-03-27 13:00:00 9.4 14 Sur 32 Sudeste 0 889.1 -0.8 29
2020-03-27 12:00:00 7.8 22 Sudeste 37 Sudeste 0 889.6 0.1 32
2020-03-27 11:00:00 6.6 15 Este 28 Este 0 889.8 0.7 39
2020-03-27 10:00:00 4 16 Este 29 Este 0 889.9 1.1 46
2020-03-27 09:00:00 1.5 8 Sur 14 Sur 0 889.5 1.3 53
2020-03-27 08:00:00 -0.6 6 Sudeste 17 Sudeste 0 889.1 0.9 61
2020-03-27 07:00:00 -2.1 11 Este 18 Sudeste 0 888.8 0.7 65
2020-03-27 06:00:00 -2.2 8 Sudeste 15 Este 0 888.2 0 65
2020-03-27 05:00:00 -2.2 7 Sudeste 12 Sudeste 0 888.2 -0.2 65
2020-03-27 04:00:00 -1.6 11 Este 21 Este 0 888.1 -0.1 63
2020-03-27 03:00:00 -2 5 Sudeste 29 Este 0 888.2 0.4 62
2020-03-27 02:00:00 -1.1 12 Este 31 Nordeste 0 888.4 0.1 59
2020-03-27 01:00:00 -0.4 18 Sudeste 32 Sudeste 0 888.2 0.2 57
2020-03-27 00:00:00 0.1 10 Noroeste 22 Noroeste 0 887.8 -0.3 58
2020-03-26 23:00:00 0.8 4 Norte 20 Norte 0 888.3 0.4 60
2020-03-26 22:00:00 0.9 6 Noroeste 15 Norte 0 888 0.5 63
2020-03-26 21:00:00 1.5 2 Sudeste 12 Este 0 888.1 0.9 65
2020-03-26 20:00:00 3.1 12 Este 24 Noroeste 0 887.9 0.9 60
2020-03-26 19:00:00 4.3 13 Noroeste 32 Noroeste 0 887.5 0.5 51
2020-03-26 18:00:00 6.2 17 Norte 38 Noroeste 0 887.2 -0.1 44
2020-03-26 17:00:00 6.8 14 Norte 34 Norte 0 887 -0.5 41
2020-03-26 16:00:00 7.1 18 Noroeste -- -- 0 887 -0.8 47
2020-03-26 15:00:00 6.4 10 Noroeste 40 Noroeste 0 887.3 -0.5 49
2020-03-26 14:00:00 5.4 20 Noroeste 45 Norte 0 887.5 -0.1 52
2020-03-26 13:00:00 6.3 21 Noroeste 44 Nordeste 0 887.8 0.2 43
2020-03-26 12:00:00 7.5 -- -- -- -- 0 887.8 0.3 45
2020-03-26 11:00:00 6.2 27 Norte 47 Noroeste 0 887.6 0 47
2020-03-26 10:00:00 5.8 26 Norte 47 Noroeste 0 887.6 -0.2 49
2020-03-26 09:00:00 4.7 26 Noroeste 44 Noroeste 0 887.5 -0.4 53
2020-03-26 08:00:00 3.1 19 Noroeste 35 Norte 0 887.6 -0.8 58
2020-03-26 07:00:00 -0.9 4 Oeste 24 Oeste 0 887.8 -0.7 74
2020-03-26 06:00:00 -3.4 4 Este 9 Noroeste 0 887.9 -0.9 75
2020-03-26 05:00:00 -2.6 3 Sur 14 Sur 0 888.4 -0.6 71
2020-03-26 04:00:00 -1.2 8 Sudoeste 15 Sur 0 888.5 -1 61
2020-03-26 03:00:00 -0.7 13 Sur 19 Sur 0 888.8 -1.1 44
2020-03-26 02:00:00 1.7 12 Oeste 37 Noroeste 0 889 -1.4 33
2020-03-26 01:00:00 3.1 17 Noroeste 37 Noroeste 0 889.5 -1.2 26
2020-03-26 00:00:00 3.6 17 Noroeste 38 Norte 0 889.9 -0.5 33
2020-03-25 23:00:00 1.8 10 Noroeste 17 Noroeste 0 890.4 0.4 53
2020-03-25 22:00:00 3.6 4 Noroeste 14 Oeste 0 890.7 0.8 54
2020-03-25 21:00:00 6.7 3 Noroeste 13 Oeste 0 890.4 0.7 47
2020-03-25 20:00:00 8.5 7 Oeste 29 Norte 0 890 0.2 44
2020-03-25 19:00:00 10.7 13 Norte 31 Norte 0 889.9 0.1 37
2020-03-25 18:00:00 12.1 16 Norte -- -- 0 889.7 -0.3 30
2020-03-25 17:00:00 13.2 17 Norte -- -- 0 889.8 -0.5 26
2020-03-25 16:00:00 14.2 -- -- -- -- 0 889.8 -1.1 23
2020-03-25 15:00:00 14.1 -- -- -- -- 0 890 -1.4 23
2020-03-25 14:00:00 14.2 18 Noroeste 35 Oeste 0 890.3 -1.6 23
2020-03-25 13:00:00 13 19 Oeste 41 Sudoeste 0 890.9 -1.3 37
2020-03-25 12:00:00 12.1 15 Oeste 32 Noroeste 0 891.4 -1 45
2020-03-25 11:00:00 10 15 Oeste 29 Oeste 0 891.9 -0.6 57
2020-03-25 10:00:00 8.2 16 Oeste 28 Oeste 0 892.2 -0.3 63
2020-03-25 09:00:00 2 2 Noroeste 5 Noroeste 0 892.4 -0.1 84
2020-03-25 08:00:00 -1.3 0 Calma 7 Sur 0 892.5 -0.2 89
2020-03-25 07:00:00 -2.4 0 Calma 12 Sur 0 892.5 -0.6 90
2020-03-25 06:00:00 -1.6 6 Sudeste 14 Sur 0 892.5 -0.8 91
2020-03-25 05:00:00 -1 6 Sur 11 Sur 0 892.7 -0.9 91
2020-03-25 04:00:00 -0.3 7 Sur 11 Sur 0 893.1 -0.7 91
2020-03-25 03:00:00 0.4 4 Sur 13 Sur 0 893.3 -0.5 90
2020-03-25 02:00:00 0.7 4 Sudeste 17 Sudeste 0 893.6 -0.5 88
2020-03-25 01:00:00 1.2 2 Este 10 Sur 0 893.8 -0.2 88
2020-03-25 00:00:00 2.7 4 Sudeste 12 Sur 0 893.8 0 85
2020-03-24 23:00:00 3.8 3 Sudeste 11 Sudeste 0 894.1 0.7 80
2020-03-24 22:00:00 5.2 5 Sur 10 Sudeste 0 894 0.8 76
2020-03-24 21:00:00 6.7 7 Sur 16 Sudeste 0 893.8 0.9 71
2020-03-24 20:00:00 8.2 12 Sur 22 Sur 0 893.4 0.7 66
2020-03-24 19:00:00 10.1 11 Sudeste 29 Sur 0 893.2 0.4 59
2020-03-24 18:00:00 11.6 13 Sur 29 Sur 0 892.9 -0.3 54
2020-03-24 17:00:00 12.7 14 Sudeste 33 Sur 0 892.7 -0.9 48
2020-03-24 16:00:00 13.2 15 Sur 31 Sur 0 892.8 -1.3 46
2020-03-24 15:00:00 13 16 Sur 40 Sur 0 893.2 -1.5 48
2020-03-24 14:00:00 13.4 11 Sudeste 31 Sudeste 0 893.6 -1.4 45
2020-03-24 13:00:00 12.4 14 Este 32 Sudeste 0 894.1 -1 49
2020-03-24 12:00:00 11.1 17 Sudeste 37 Este 0 894.7 -0.4 51
2020-03-24 11:00:00 9.5 20 Este 34 Este 0 895 0 53
2020-03-24 10:00:00 8.9 22 Este 57 Este 0 895.1 0.4 57
2020-03-24 09:00:00 8.1 16 Este 31 Sudeste 0 895.1 0.3 63
2020-03-24 08:00:00 6.5 13 Sudeste 32 Sudeste 0 895 0.5 71
2020-03-24 07:00:00 6 13 Sudeste 22 Este 0 894.7 0.1 73
2020-03-24 06:00:00 6.8 11 Este 23 Este 0 894.8 0.1 76
2020-03-24 05:00:00 6.7 7 Este 27 Este 0 894.5 -0.1 79
2020-03-24 04:00:00 7.1 17 Sudeste 31 Sudeste 0 894.6 -0.1 76
2020-03-24 03:00:00 5.6 9 Sudeste 18 Sudeste 0 894.7 -0.2 80
2020-03-24 02:00:00 6.2 10 Este 26 Este 0 894.6 -0.2 78
2020-03-24 01:00:00 6.9 12 Este 21 Este 0 894.7 0.3 79
2020-03-24 00:00:00 6.3 7 Este 18 Sudeste 0 894.9 0.6 79
2020-03-23 23:00:00 5.5 7 Este 12 Sudeste 0 894.8 0.9 80
2020-03-23 22:00:00 7.1 9 Sudeste 24 Sudeste 0 894.4 1 74
2020-03-23 21:00:00 7.7 15 Sudeste 25 Sudeste 0 894.3 1.3 69
2020-03-23 20:00:00 7.9 14 Sudeste 30 Sudeste 0 893.9 1.2 69
2020-03-23 19:00:00 9.2 17 Este 35 Sudeste 0 893.4 0.8 66
2020-03-23 18:00:00 10.4 22 Este 38 Este 0 893 0.2 63
2020-03-23 17:00:00 11 19 Este 35 Este 0 892.7 -0.8 56
2020-03-23 16:00:00 12.5 17 Sudeste 35 Sudeste 0 892.6 -1.3 51
2020-03-23 15:00:00 12.7 19 Sudeste 40 Este 0 892.8 -1.6 48
2020-03-23 14:00:00 10.5 21 Este 34 Este 0 893.5 -0.3 58
2020-03-23 13:00:00 10.4 18 Sudeste 29 Este 0 893.9 0.3 59
2020-03-23 12:00:00 9.6 12 Este 37 Este 0 894.4 0.9 55
2020-03-23 11:00:00 9.5 17 Sudeste 33 Sudeste 0 893.8 0.5 58
2020-03-23 10:00:00 8.8 -- -- -- -- 0 893.6 0.9 61
2020-03-23 09:00:00 6.8 10 Este 16 Este 0 893.5 1.1 76
2020-03-23 08:00:00 0.3 2 Norte 8 Sudoeste 0 893.3 1.2 92
2020-03-23 07:00:00 -0.8 3 Sudoeste 9 Sur 0 892.7 0.8 92
2020-03-23 06:00:00 -0.6 2 Noroeste 9 Sudeste 0 892.4 0.4 89
2020-03-23 05:00:00 -0.9 2 Sur 6 Noroeste 0 892.1 0 91
2020-03-23 04:00:00 -0.1 3 Sur 10 Sur 0 891.9 -0.3 90
2020-03-23 03:00:00 -0.9 2 Oeste 5 Nordeste 0 892 -0.4 90
2020-03-23 02:00:00 0.7 2 Sur 7 Este 0 892.1 0 90
2020-03-23 01:00:00 1.2 0 Calma 18 Sur 0 892.2 0.3 86
2020-03-23 00:00:00 1.6 17 Sur 22 Sur 0 892.4 1 85
2020-03-22 23:00:00 3.1 7 Sudeste 15 Sur 0 892.1 1.3 81
2020-03-22 22:00:00 4.6 5 Sudeste 12 Sur 0 891.9 2.2 74
2020-03-22 21:00:00 5.5 5 Este 13 Este 0 891.4 2.1 71
2020-03-22 20:00:00 7.7 7 Este 16 Sur 0 890.8 2 65
2020-03-22 19:00:00 9.6 9 Sur 18 Sudeste 0 889.7 1 60
2020-03-22 18:00:00 10.3 9 Sudeste 27 Este 0.4 889.3 0.6 60
2020-03-22 17:00:00 12 13 Este -- -- 0 888.8 0.1 51
2020-03-22 16:00:00 11.1 17 Este -- -- 0.2 888.7 -0.4 53
2020-03-22 15:00:00 11.9 13 Sur -- -- 0 888.7 -0.6 54
2020-03-22 14:00:00 14 15 Este -- -- 0 888.7 -0.8 44
2020-03-22 13:00:00 12.5 12 Sudeste 22 Sudeste 0 889.1 -0.5 49
2020-03-22 12:00:00 13.4 10 Sudeste 21 Este 0 889.3 0 47
2020-03-22 11:00:00 10.4 3 Norte 9 Sur 0 889.5 0.4 60
2020-03-22 10:00:00 7.8 0 Calma 7 Noroeste 0 889.6 0.8 76
2020-03-22 09:00:00 5.4 3 Este 9 Este 0 889.3 0.7 87
2020-03-22 08:00:00 4.3 4 Sur 10 Sur 0 889.1 0.8 91
2020-03-22 07:00:00 3.3 0 Calma 9 Sur 0 888.8 0.3 90
2020-03-22 06:00:00 3.8 10 Sur 14 Sur 0 888.6 -0.2 91
2020-03-22 05:00:00 3.5 0 Calma 6 Sur 0 888.3 -0.7 89
2020-03-22 04:00:00 5.2 5 Sur 11 Sur 0 888.5 -0.7 87
2020-03-22 03:00:00 5.8 6 Sur 9 Sur 0 888.8 -0.6 86
2020-03-22 02:00:00 6.1 3 Sudeste 8 Sur 0 889 -0.3 85
2020-03-22 01:00:00 6 6 Sur 11 Sur 0 889.2 -0.1 84
2020-03-22 00:00:00 5.7 8 Sur 14 Sur 0 889.4 0.5 83
2020-03-21 23:00:00 6 9 Sur 14 Sur 0 889.3 0.8 84
2020-03-21 22:00:00 5.5 8 Sur 14 Sur 0 889.3 1.4 83
2020-03-21 21:00:00 7.1 5 Sudeste 16 Sudeste 0 888.9 1.1 78
2020-03-21 20:00:00 7.4 7 Sudeste 18 Sudeste 0 888.5 0.9 74
2020-03-21 19:00:00 9.2 7 Sudeste 24 Sudeste 0 887.9 -0.1 64
2020-03-21 18:00:00 10.1 9 Sudeste 23 Sudeste 0 887.8 -0.6 59
2020-03-21 17:00:00 11.6 13 Sudeste 23 Este 0 887.6 -1.9 53
2020-03-21 16:00:00 10.4 12 Este -- -- 0 888 -1.7 59
2020-03-21 15:00:00 10 14 Sudeste 28 Este 0 888.4 -1.5 61
2020-03-21 14:00:00 9.2 15 Este -- -- 0 889.5 -0.1 67
2020-03-21 13:00:00 8 -- -- -- -- 0 889.7 0.1 71
2020-03-21 12:00:00 8.3 -- -- -- -- 0 889.9 0.2 68
2020-03-21 11:00:00 8.4 -- -- -- -- 0 889.6 0 67
2020-03-21 10:00:00 7.4 17 Sudeste 37 Este 0 889.6 -0.2 73
2020-03-21 09:00:00 6.9 17 Sudeste 28 Sudeste 0 889.7 -0.4 78
2020-03-21 08:00:00 6.1 15 Sudeste -- -- 0 889.6 -0.7 81
2020-03-21 07:00:00 5.9 14 Sudeste 26 Sudeste 0 889.8 -1 81
2020-03-21 06:00:00 6.6 13 Este 26 Este 0 890.1 -1 73
2020-03-21 05:00:00 6.5 17 Este -- -- 0 890.3 -1 70
2020-03-21 04:00:00 7.1 17 Sudeste -- -- 0 890.8 -1 75
2020-03-21 03:00:00 7.7 18 Sudeste -- -- 0 891.1 -1.1 75
2020-03-21 02:00:00 7.7 -- -- -- -- 0 891.3 -1.2 78
2020-03-21 01:00:00 7.6 13 Sudeste 27 Sudeste 0 891.8 -0.8 82
2020-03-21 00:00:00 7.6 18 Sudeste 29 Sudeste 0 892.2 -0.4 81
2020-03-20 23:00:00 7.5 12 Sudeste 25 Sudeste 0 892.5 0.2 80
2020-03-20 22:00:00 7 12 Sur 22 Sudeste 0 892.6 0.3 79
2020-03-20 21:00:00 8.5 13 Sudeste 24 Sudeste 0 892.6 0.5 75
2020-03-20 20:00:00 9 14 Sudeste 23 Este 0 892.3 0.1 72
2020-03-20 19:00:00 9.7 13 Sudeste -- -- 0 892.3 -0.2 67
2020-03-20 18:00:00 10.5 -- -- -- -- 0 892.1 -0.6 65
2020-03-20 17:00:00 10.7 -- -- -- -- 0 892.2 -0.7 63
2020-03-20 16:00:00 10.6 -- -- -- -- 0 892.5 -0.7 64
2020-03-20 15:00:00 10.8 -- -- -- -- 0 892.7 -1.3 64
2020-03-20 14:00:00 10.2 17 Este -- -- 0 892.9 -1 64
2020-03-20 13:00:00 9.9 -- -- -- -- 0 893.2 -0.5 66
2020-03-20 12:00:00 8.5 -- -- -- -- 0 894 0.5 72
2020-03-20 11:00:00 8.5 -- -- -- -- 0 893.9 0.5 70
2020-03-20 10:00:00 7.7 19 Este 33 Este 0 893.7 0.5 71
2020-03-20 09:00:00 6.5 16 Este 28 Este 0 893.5 0.2 74
2020-03-20 08:00:00 6.2 18 Este 27 Sudeste 0 893.4 0.3 70
2020-03-20 07:00:00 6.5 15 Sudeste -- -- 0 893.2 -0.7 69
2020-03-20 06:00:00 6.7 10 Sudeste 26 Este 0 893.3 -0.7 76
2020-03-20 05:00:00 7.1 14 Sudeste 28 Este 0 893.1 -1.2 72
2020-03-20 04:00:00 7.5 16 Este 31 Sudeste 0 893.9 -0.6 72
2020-03-20 03:00:00 7.5 15 Este 27 Este 0 894 -0.9 74
2020-03-20 02:00:00 7.2 13 Sudeste 19 Sudeste 0 894.3 -0.7 72
2020-03-20 01:00:00 6.4 8 Sudeste 19 Este 0 894.5 -0.6 75
2020-03-20 00:00:00 6.9 10 Este 17 Sudeste 0 894.9 0.1 70
2020-03-19 23:00:00 7.5 7 Sudeste 19 Este 0 895 0 63
2020-03-19 22:00:00 7.9 13 Sudeste 22 Sudeste 0 895.1 0.2 59
2020-03-19 21:00:00 8.5 12 Sudeste 20 Sudeste 0 894.8 0.1 49
2020-03-19 20:00:00 9.9 7 Sudeste 21 Sudeste 0 895 -0.1 41
2020-03-19 19:00:00 11.5 14 Sudeste 26 Sudeste 0 894.9 -0.7 37
2020-03-19 18:00:00 12.6 15 Este 27 Este 0 894.7 -1.3 43
2020-03-19 17:00:00 13.5 13 Sudeste 28 Este 0 895.1 -1.6 31
2020-03-19 16:00:00 13.5 12 Sudeste 31 Sudeste 0 895.6 -1.7 27
2020-03-19 15:00:00 14 12 Sudeste -- -- 0 896 -1.6 28
2020-03-19 14:00:00 14 -- -- -- -- 0 896.7 -1.7 34
2020-03-19 13:00:00 13.3 -- -- -- -- 0 897.3 -1.3 37
2020-03-19 12:00:00 13.4 19 Este -- -- 0 897.6 -0.8 39
2020-03-19 11:00:00 11.2 -- -- -- -- 0 898.4 -0.1 41
2020-03-19 10:00:00 10.5 14 Sudeste 20 Este 0 898.6 0 44
2020-03-19 09:00:00 7 11 Este 18 Este 0 898.4 -0.2 61
2020-03-19 08:00:00 2.9 2 Oeste 5 Este 0 898.5 -0.3 81
2020-03-19 07:00:00 3 0 Calma 6 Sudeste 0 898.6 -0.5 85
2020-03-19 06:00:00 3.5 0 Calma 12 Este 0 898.6 -1.1 88
2020-03-19 05:00:00 3.5 0 Calma 5 Sudoeste 0 898.8 -1.4 89
2020-03-19 04:00:00 4.1 0 Calma 18 Sur 0 899.1 -1.4 87
2020-03-19 03:00:00 4.9 3 Sur 7 Sudeste 0 899.7 -1.1 87
2020-03-19 02:00:00 5.6 2 Sur 12 Sur 0 900.2 -0.6 85
2020-03-19 01:00:00 6.5 3 Sudeste 7 Nordeste 0 900.5 -0.6 84
2020-03-19 00:00:00 7.6 10 Sudeste 14 Sudeste 0 900.8 -0.3 80
2020-03-18 23:00:00 9 5 Sudeste 14 Este 0 900.8 -0.1 75
2020-03-18 22:00:00 9.1 7 Este 21 Este 0 901.1 0.3 76
2020-03-18 21:00:00 9.5 5 Este 9 Sudeste 0 901.1 0.5 73
2020-03-18 20:00:00 11.4 5 Sudeste 15 Sur 0 900.9 0.2 61
2020-03-18 19:00:00 12.6 8 Sur 16 Sur 0 900.8 -0.2 58
2020-03-18 18:00:00 13.9 6 Sur 16 Sudeste 0 900.6 -0.7 52
2020-03-18 17:00:00 14.8 13 Sudeste 21 Sudeste 0 900.7 -1.1 48
2020-03-18 16:00:00 15.5 13 Sudeste 22 Sudeste 0 901 -1.4 49
2020-03-18 15:00:00 15.8 14 Sudeste 28 Este 0 901.3 -1.7 47
2020-03-18 14:00:00 16.5 16 Sudeste 29 Sudeste 0 901.8 -1.4 44
2020-03-18 13:00:00 16.1 13 Este 29 Sudeste 0 902.4 -1.1 45
2020-03-18 12:00:00 14.9 15 Sudeste 31 Este 0 903 -0.4 46
2020-03-18 11:00:00 13.4 10 Este 15 Este 0 903.2 -0.1 54
2020-03-18 10:00:00 8.8 5 Este 10 Sur 0 903.5 0.2 71
2020-03-18 09:00:00 5.4 3 Sur 13 Sur 0 903.4 0.2 84
2020-03-18 08:00:00 4.2 7 Sur 16 Sur 0 903.3 0.2 86
2020-03-18 07:00:00 4.1 6 Sur 21 Sur 0 903.3 0 88
2020-03-18 06:00:00 4.2 4 Sur 14 Sur 0 903.2 -0.5 89
2020-03-18 05:00:00 4.2 8 Sudeste 21 Sur 0 903.1 -1 89
2020-03-18 04:00:00 4.8 9 Sur 12 Sur 0 903.3 -1.1 85
2020-03-18 03:00:00 6.1 2 Noroeste 19 Sudeste 0 903.7 -1.1 80
2020-03-18 02:00:00 7.7 13 Sudeste 20 Sudeste 0 904.1 -1.2 73
2020-03-18 01:00:00 6.9 9 Sur 20 Sudeste 0 904.4 -0.6 81
2020-03-18 00:00:00 7.9 10 Sudeste 28 Sudeste 0 904.8 0.8 78
2020-03-17 23:00:00 8.6 16 Sudeste 27 Sudeste 0 905.3 1.5 76
2020-03-17 22:00:00 8.8 11 Sudeste 23 Sudeste 0 905 1.9 76
2020-03-17 21:00:00 8.7 16 Este 25 Este 0 904 1.3 81
2020-03-17 20:00:00 9 15 Sudeste 38 Este 0 903.8 1.3 80
2020-03-17 19:00:00 9.4 10 Sudeste -- -- 0 903.1 0.7 80
2020-03-17 18:00:00 9.8 -- -- -- -- 0 902.7 0.4 78
2020-03-17 17:00:00 10.3 -- -- -- -- 0 902.5 0.4 73
2020-03-17 16:00:00 10.3 -- -- -- -- 0 902.4 0.4 75
2020-03-17 15:00:00 9.8 -- -- -- -- 0 902.3 0.8 77
2020-03-17 14:00:00 10.1 -- -- -- -- 0 902.1 0.6 74
2020-03-17 13:00:00 10.3 -- -- -- -- 0 902 1 72
2020-03-17 12:00:00 9.9 -- -- -- -- 0 901.5 0.8 73
2020-03-17 11:00:00 9.5 18 Este 41 Este 0 901.5 1.6 73
2020-03-17 10:00:00 8.2 -- -- -- -- 0 901 1.4 70
2020-03-17 09:00:00 7.1 -- -- -- -- 0 900.7 2.1 72
2020-03-17 08:00:00 6.5 20 Este -- -- 0 899.9 2.4 73
2020-03-17 07:00:00 6.4 -- -- -- -- 0 899.6 2.3 73
2020-03-17 06:00:00 6.5 -- -- -- -- 0 898.6 1.5 71
2020-03-17 05:00:00 5.7 21 Este -- -- 0 897.5 0.5 74
2020-03-17 04:00:00 5.2 -- -- -- -- 0 897.3 0.4 75
2020-03-17 03:00:00 5.1 -- -- -- -- 0 897.1 0.5 72
2020-03-17 02:00:00 5 -- -- -- -- 0 897 1.2 73
2020-03-17 01:00:00 5.5 -- -- -- -- 0 896.9 2 69
2020-03-17 00:00:00 4.8 -- -- -- -- 0 896.6 2.5 72
2020-03-16 23:00:00 4.7 -- -- -- -- 0 895.8 2.8 72
2020-03-16 22:00:00 4.8 -- -- -- -- 0 894.9 2.7 73
2020-03-16 21:00:00 4.4 -- -- -- -- 0.2 894.1 2.5 76
2020-03-16 20:00:00 4.6 20 Sudeste -- -- 0.4 893 1.9 78
2020-03-16 19:00:00 4.9 -- -- -- -- 0 892.2 1.1 72
2020-03-16 18:00:00 4.8 -- -- -- -- 0 891.6 0.6 72
2020-03-16 17:00:00 4.8 26 Este 53 Este 0 891.1 0.1 72
2020-03-16 16:00:00 4.6 18 Este -- -- 0 891.1 0.3 71
2020-03-16 15:00:00 4.5 20 Sudeste -- -- 0 891 0.4 71
2020-03-16 14:00:00 4.4 -- -- -- -- 0 891 0.5 74
2020-03-16 13:00:00 3.8 -- -- -- -- 0.2 890.8 2.2 76
2020-03-16 12:00:00 2 -- -- -- -- 0.4 890.6 1.7 86
2020-03-16 11:00:00 3.3 -- -- -- -- 0 890.5 2.4 72
2020-03-16 10:00:00 3 -- -- -- -- 0.2 888.6 1.2 74
2020-03-16 09:00:00 1.5 -- -- -- -- 0 888.9 1.5 86
2020-03-16 08:00:00 2.1 -- -- -- -- 0 888.1 1.1 79
2020-03-16 07:00:00 1.7 10 Sur 22 Este 0.2 887.4 1.4 83
2020-03-16 06:00:00 1.8 15 Este -- -- 1 887.4 0.2 86
2020-03-16 05:00:00 2 11 Este 33 Nordeste 2.4 887 0.1 85
2020-03-16 04:00:00 3.7 20 Este 39 Este 0 886 -1.7 78
2020-03-16 03:00:00 3.5 15 Este 31 Sudeste 1.8 887.2 -1 86
2020-03-16 02:00:00 4.9 15 Sudeste 24 Sudeste 0.4 886.9 -0.9 82
2020-03-16 01:00:00 6.2 6 Sudeste 19 Sur 2.4 887.7 -0.3 87
2020-03-16 00:00:00 7 12 Sur 28 Sudoeste 2.6 888.2 0.3 88
2020-03-15 23:00:00 7.8 9 Este 17 Sudeste 0.6 887.8 0.3 89
2020-03-15 22:00:00 7.9 8 Sudeste -- -- -- 888 -0.1 89
2020-03-15 21:00:00 8 3 Este 19 Sur 0 887.9 -0.6 89
2020-03-15 20:00:00 8.2 8 Sur 12 Oeste 0 887.5 -0.1 85
2020-03-15 19:00:00 8.7 12 Noroeste 37 Sudoeste 1.4 888.1 0 83
2020-03-15 18:00:00 10.1 18 Oeste 37 Sudoeste 2.2 888.5 -0.3 72
2020-03-15 17:00:00 12.4 11 Oeste 28 Sudoeste 0.6 887.6 -2.2 62
2020-03-15 16:00:00 16.9 12 Oeste 31 Sudoeste 0 888.1 -3 37
2020-03-15 15:00:00 16.9 12 Oeste 36 Sudoeste 0 888.8 -3 34
2020-03-15 14:00:00 17.3 18 Oeste 39 Oeste 0 889.8 -2.6 32
2020-03-15 13:00:00 17.3 21 Oeste 39 Oeste 0 891.1 -2 35
2020-03-15 12:00:00 16.5 10 Sudoeste 24 Sudoeste 0 891.8 -1.5 42
2020-03-15 11:00:00 14.4 11 Sudeste 21 Sudeste 0 892.4 -1 40
2020-03-15 10:00:00 9.6 3 Este 16 Sur 0 893.1 -0.4 52
2020-03-15 09:00:00 2.4 10 Sur 19 Sur 0 893.3 -0.4 71
2020-03-15 08:00:00 0.3 12 Sur 20 Sur 0 893.4 -0.5 79
2020-03-15 07:00:00 -0.8 12 Sur 19 Sur 0 893.5 -1 83
2020-03-15 06:00:00 -0.6 6 Sur 16 Sur 0 893.7 -1.6 83
2020-03-15 05:00:00 0.2 12 Sur 22 Sur 0 893.9 -1.9 78
2020-03-15 04:00:00 0.6 11 Sur 18 Sur 0 894.5 -1.7 78
2020-03-15 03:00:00 0.3 12 Sur 20 Sur 0 895.3 -1.2 79
2020-03-15 02:00:00 0.8 12 Sur 19 Sur 0 895.8 -0.9 77
2020-03-15 01:00:00 1.7 9 Sur 17 Sur 0 896.2 -0.5 71
2020-03-15 00:00:00 2.4 13 Sur 18 Sur 0 896.5 0 69
2020-03-14 23:00:00 3.6 9 Sur 15 Sur 0 896.7 0.4 64
2020-03-14 22:00:00 5.1 8 Sudeste 14 Sur 0 896.7 0.8 58
2020-03-14 21:00:00 7 2 Este 14 Sur 0 896.5 0.7 47
2020-03-14 20:00:00 10.4 5 Noroeste 18 Oeste 0 896.3 0.4 29
2020-03-14 19:00:00 13.9 9 Oeste 15 Oeste 0 895.9 -0.2 22
2020-03-14 18:00:00 17.1 10 Oeste 21 Oeste 0 895.8 -0.7 20
2020-03-14 17:00:00 17.9 12 Oeste 21 Oeste 0 895.9 -1.3 21
2020-03-14 16:00:00 17.7 10 Noroeste 23 Noroeste 0 896.1 -1.6 24
2020-03-14 15:00:00 17.2 11 Noroeste 24 Oeste 0 896.5 -1.5 27
2020-03-14 14:00:00 16.1 12 Noroeste 26 Noroeste 0 897.2 -1.3 29
2020-03-14 13:00:00 14.3 17 Noroeste 27 Oeste 0 897.7 -0.9 29
2020-03-14 12:00:00 12.2 12 Noroeste 21 Noroeste 0 898 -0.3 48
2020-03-14 11:00:00 8.3 7 Noroeste 12 Noroeste 0 898.5 0.7 89
2020-03-14 10:00:00 4.1 3 Noroeste 7 Noroeste 0 898.6 1 94
2020-03-14 09:00:00 1.2 4 Sudeste 9 Sur 0 898.3 1 95
2020-03-14 08:00:00 -0.1 4 Este 12 Sur 0 897.8 0.8 95
2020-03-14 07:00:00 0.2 0 Calma 14 Sur 0 897.6 0.6 94
2020-03-14 06:00:00 0.7 4 Sur 11 Sur 0 897.3 0 94
2020-03-14 05:00:00 1.3 3 Sudeste 10 Sur 0 897 -0.6 93
2020-03-14 04:00:00 1.3 0 Calma 17 Sur 0 897 -0.4 91
2020-03-14 03:00:00 2.3 0 Calma 13 Sudeste 0 897.3 -0.1 90
2020-03-14 02:00:00 3.4 4 Sudeste 10 Sur 0 897.6 0.3 91
2020-03-14 01:00:00 5 9 Sur 16 Sur 0 897.4 0.6 89
2020-03-14 00:00:00 5.5 6 Sur 15 Sur 0 897.4 0.9 87
2020-03-13 23:00:00 6.9 8 Sur 12 Sur 0 897.3 1.2 83
2020-03-13 22:00:00 7.6 5 Sur 9 Sur 0 896.8 1.4 78
2020-03-13 21:00:00 8.4 6 Este 13 Este 0 896.5 1.7 75
2020-03-13 20:00:00 10.5 8 Este 24 Oeste 0 896.1 1.5 70
2020-03-13 19:00:00 11.6 16 Oeste 28 Oeste 0 895.4 0.6 64
2020-03-13 18:00:00 14.3 19 Oeste 29 Oeste 0 894.8 -0.1 58
2020-03-13 17:00:00 17.4 12 Oeste 20 Noroeste 0 894.6 -1 48
2020-03-13 16:00:00 16.8 9 Sur 18 Sudeste 0 894.8 -1.3 50
2020-03-13 15:00:00 16.3 3 Nordeste 16 Noroeste 0 894.9 -1.5 51
2020-03-13 14:00:00 15.7 7 Oeste 20 Oeste 0 895.6 -1 54
2020-03-13 13:00:00 16.5 5 Noroeste 17 Este 0 896.1 -0.5 53
2020-03-13 12:00:00 14.9 8 Este 16 Este 0 896.4 -0.5 53
2020-03-13 11:00:00 13.1 4 Este 12 Este 0 896.6 0 58
2020-03-13 10:00:00 10.4 6 Este 12 Este 0 896.6 0.3 65
2020-03-13 09:00:00 7 3 Sudeste 5 Sudeste 0 896.9 0.8 81
2020-03-13 08:00:00 4.7 2 Norte 12 Este 0 896.6 0.4 85
2020-03-13 07:00:00 5.8 3 Sudeste 10 Este 0 896.3 0.4 85
2020-03-13 06:00:00 7.5 3 Sudoeste 13 Sudeste 0 896.1 -0.1 75
2020-03-13 05:00:00 7.8 5 Sudeste 21 Noroeste 0 896.2 -0.5 80
2020-03-13 04:00:00 8.7 4 Sudoeste 21 Este 0 895.9 -0.9 74
2020-03-13 03:00:00 8.9 8 Sudeste 19 Este 0 896.2 -0.7 74
2020-03-13 02:00:00 9.7 8 Sudeste 18 Este 0 896.7 -0.1 71
2020-03-13 01:00:00 10 9 Sudeste 19 Este 0 896.8 0.5 71
2020-03-13 00:00:00 10.4 7 Sudeste 13 Sudeste 0 896.9 0.5 72
2020-03-12 23:00:00 10.9 6 Norte 30 Oeste 0 896.8 1 73
2020-03-12 22:00:00 11.3 9 Este 15 Este 0 896.3 0.7 71
2020-03-12 21:00:00 12.5 6 Noroeste 14 Noroeste 0 896.4 0.9 66
2020-03-12 20:00:00 14.7 4 Este 24 Oeste 0 895.8 0.6 56
2020-03-12 19:00:00 16.1 14 Oeste 31 Oeste 0 895.6 0 47
2020-03-12 18:00:00 18 18 Oeste 32 Oeste 0 895.5 -0.8 47
2020-03-12 17:00:00 21.8 14 Oeste 26 Oeste 0 895.2 -1.9 28
2020-03-12 16:00:00 22.2 8 Noroeste 28 Oeste 0 895.6 -2.2 28
2020-03-12 15:00:00 21.4 16 Sudoeste 38 Sudoeste 0 896.3 -1.9 28
2020-03-12 14:00:00 22.7 11 Oeste 37 Sudoeste 0 897.1 -1.3 26
2020-03-12 13:00:00 22 14 Oeste 32 Oeste 0 897.8 -1 28
2020-03-12 12:00:00 20.9 13 Sudoeste 30 Sudoeste 0 898.2 -0.7 27
2020-03-12 11:00:00 17.8 7 Este 10 Sur 0 898.4 -0.4 49
2020-03-12 10:00:00 11.2 8 Sur 16 Sur 0 898.8 0.2 66
2020-03-12 09:00:00 6.8 5 Sudeste 18 Sur 0 898.9 0.4 79
2020-03-12 08:00:00 4.9 6 Sur 18 Sur 0 898.8 -0.1 83
2020-03-12 07:00:00 4.4 11 Sur 22 Sur 0 898.6 -0.7 85
2020-03-12 06:00:00 4.4 11 Sur 18 Sur 0 898.5 -1.4 84
2020-03-12 05:00:00 5.1 7 Sudeste 18 Sur 0 898.9 -1.4 81
2020-03-12 04:00:00 5.6 9 Sur 18 Sur 0 899.3 -0.9 80
2020-03-12 03:00:00 6.3 5 Sudeste 15 Sur 0 899.9 -1 79
2020-03-12 02:00:00 7.1 8 Sur 19 Sur 0 900.3 -0.6 76
2020-03-12 01:00:00 8.2 4 Sudeste 13 Sur 0 900.2 -0.8 73
2020-03-12 00:00:00 9.2 8 Sudeste 18 Sur 0 900.9 0 69
2020-03-11 23:00:00 10 2 Sur 10 Sur 0 900.9 0.2 67
2020-03-11 22:00:00 11.1 5 Sur 10 Sur 0 901 0.4 64
2020-03-11 21:00:00 12.5 6 Sur 12 Sur 0 900.9 0.5 58
2020-03-11 20:00:00 14.2 7 Sudoeste 18 Sudoeste 0 900.7 0.5 48
2020-03-11 19:00:00 17.9 12 Oeste 17 Oeste 0 900.6 0.2 34
2020-03-11 18:00:00 19.8 10 Oeste 23 Oeste 0 900.4 -0.3 31
2020-03-11 17:00:00 22 13 Oeste 30 Oeste 0 900.2 -1.2 24
2020-03-11 16:00:00 22 14 Oeste 29 Oeste 0 900.4 -1.7 22
2020-03-11 15:00:00 21.1 12 Oeste 27 Oeste 0 900.7 -1.7 18
2020-03-11 14:00:00 20.2 15 Oeste 30 Oeste 0 901.4 -1.2 19
2020-03-11 13:00:00 19.5 8 Oeste 23 Noroeste 0 902.1 -0.5 16
2020-03-11 12:00:00 17.6 13 Noroeste 21 Noroeste 0 902.4 -0.2 21
2020-03-11 11:00:00 14.3 2 Este 6 Este 0 902.6 0.2 48
2020-03-11 10:00:00 9 3 Sur 9 Sur 0 902.6 0.4 69
2020-03-11 09:00:00 3.8 4 Sudeste 11 Sur 0 902.6 0.5 84
2020-03-11 08:00:00 1.4 4 Sudeste 16 Sur 0 902.4 0.3 91
2020-03-11 07:00:00 1.2 5 Sudeste 14 Sur 0 902.2 0.1 91
2020-03-11 06:00:00 1.2 8 Sur 14 Sur 0 902.1 -0.6 91
2020-03-11 05:00:00 1.7 4 Sudeste 16 Sur 0 902.1 -1.1 91
2020-03-11 04:00:00 2.4 6 Sudeste 15 Sudeste 0 902.1 -1.2 91
2020-03-11 03:00:00 3.2 5 Sur 14 Sur 0 902.7 -0.6 88
2020-03-11 02:00:00 3.9 9 Sur 18 Sur 0 903.2 0 88
2020-03-11 01:00:00 4.9 4 Sudeste 13 Sudeste 0 903.3 0.2 85
2020-03-11 00:00:00 5.5 7 Sur 15 Sur 0 903.3 0.3 84
2020-03-10 23:00:00 6.8 9 Sur 13 Sur 0 903.2 0.4 81
2020-03-10 22:00:00 8.3 5 Sudeste 17 Sur 0 903.1 0.7 75
2020-03-10 21:00:00 9.5 0 Calma 14 Sur 0 903 0.8 68
2020-03-10 20:00:00 12.6 5 Este 21 Oeste 0 902.8 0.6 59
2020-03-10 19:00:00 15.2 13 Oeste 24 Sudoeste 0 902.4 0.1 49
2020-03-10 18:00:00 17.2 14 Oeste 26 Oeste 0 902.2 -0.5 42
2020-03-10 17:00:00 18.3 11 Noroeste 21 Noroeste 0 902.2 -0.9 39
2020-03-10 16:00:00 17.8 10 Noroeste 19 Noroeste 0 902.3 -1.3 40
2020-03-10 15:00:00 16.4 11 Noroeste 24 Noroeste 0 902.7 -1.1 40
2020-03-10 14:00:00 16.1 9 Noroeste 26 Noroeste 0 903.1 -1.3 41
2020-03-10 13:00:00 15.1 16 Noroeste -- -- 0 903.6 -0.6 42
2020-03-10 12:00:00 13.7 8 Noroeste 21 Oeste 0 903.8 -0.2 46
2020-03-10 11:00:00 10.6 2 Nordeste 12 Este 0 904.4 0.7 56
2020-03-10 10:00:00 7.1 2 Sudeste 9 Sur 0 904.2 0.9 69
2020-03-10 09:00:00 3.7 3 Este 9 Sudeste 0 904 1 75
2020-03-10 08:00:00 2 3 Sudeste 13 Sur 0 903.7 1 79
2020-03-10 07:00:00 2.1 0 Calma 6 Sudoeste 0 903.3 0.8 76
2020-03-10 06:00:00 3.4 0 Calma 12 Oeste 0 903 0.3 71
2020-03-10 05:00:00 3.2 4 Noroeste 7 Sudoeste 0 902.7 0 67
2020-03-10 04:00:00 3.7 2 Norte 6 Norte 0 902.5 -0.2 63
2020-03-10 03:00:00 4.5 3 Norte 15 Norte 0 902.7 -0.1 58
2020-03-10 02:00:00 4.9 9 Noroeste 21 Oeste 0 902.7 -0.6 57
2020-03-10 01:00:00 5.6 8 Noroeste 28 Oeste 0 902.7 -0.4 52
2020-03-10 00:00:00 5.5 16 Oeste 27 Oeste 0 902.8 -0.1 53
2020-03-09 23:00:00 5.7 11 Noroeste 22 Noroeste 0 903.3 0.4 60
2020-03-09 22:00:00 6.1 10 Oeste 25 Oeste 0 903.1 1.1 61
2020-03-09 21:00:00 6.6 14 Oeste 25 Oeste 0 902.9 1.3 60
2020-03-09 20:00:00 7.5 13 Oeste 27 Oeste 0 902.9 1.4 56
2020-03-09 19:00:00 8.1 15 Noroeste 32 Noroeste 0 902 0.8 52
2020-03-09 18:00:00 9.3 15 Noroeste 40 Noroeste 0 901.6 0.1 41
2020-03-09 17:00:00 10.6 23 Norte 44 Norte 0 901.5 -0.4 31
2020-03-09 16:00:00 10.4 24 Noroeste 40 Noroeste 0 901.2 -1.3 39
2020-03-09 15:00:00 11.7 19 Noroeste 42 Noroeste 0 901.5 -1.4 40
2020-03-09 14:00:00 10.7 20 Noroeste 42 Noroeste 0 901.9 -1.1 42
2020-03-09 13:00:00 10.3 16 Noroeste 38 Oeste 0 902.5 0.1 43
2020-03-09 12:00:00 9.5 15 Noroeste 39 Noroeste 0 902.9 0.7 47
2020-03-09 11:00:00 7.8 18 Noroeste 33 Norte 0 903 1.2 52
2020-03-09 10:00:00 6.2 12 Noroeste 21 Oeste 0 902.4 0.8 69
2020-03-09 09:00:00 4.3 11 Oeste 21 Oeste 0 902.2 1.1 77
2020-03-09 08:00:00 3.1 13 Oeste 25 Oeste 0 901.8 1 89
2020-03-09 07:00:00 3.5 13 Oeste 25 Oeste 0 901.6 0.7 89
2020-03-09 06:00:00 3.7 12 Oeste 23 Noroeste 0 901.1 0.5 89
2020-03-09 05:00:00 3.9 12 Oeste 21 Oeste 0 900.8 -0.3 89
2020-03-09 04:00:00 3.6 10 Noroeste 17 Oeste 0 900.9 0 88
2020-03-09 03:00:00 4.3 10 Noroeste 23 Noroeste 0 900.6 -0.1 84
2020-03-09 02:00:00 5.2 14 Noroeste 37 Oeste 0 901.1 0.1 82
2020-03-09 01:00:00 5.7 14 Oeste 32 Oeste 0 900.9 0.2 82
2020-03-09 00:00:00 6.9 12 Oeste 28 Oeste 0 900.7 -0.1 81
2020-03-08 23:00:00 7.5 10 Oeste 23 Sudoeste 0 901 0.5 79
2020-03-08 22:00:00 7 5 Oeste 21 Oeste 0 900.7 0.7 73
2020-03-08 21:00:00 7.7 9 Oeste 24 Oeste 0 900.8 1.2 65
2020-03-08 20:00:00 8 10 Oeste 21 Oeste 0 900.5 0.9 65
2020-03-08 19:00:00 9.3 16 Oeste 27 Oeste 0 900 -0.1 65
2020-03-08 18:00:00 10.8 16 Noroeste 32 Oeste 0 899.6 -0.4 63
2020-03-08 17:00:00 11 14 Oeste 29 Oeste 0 899.6 -1.2 59
2020-03-08 16:00:00 10.1 12 Oeste 28 Oeste 0 900.1 -0.6 61
2020-03-08 15:00:00 11 13 Oeste 30 Oeste 0 900 -1.9 53
2020-03-08 14:00:00 10.4 17 Oeste 34 Noroeste 0 900.8 -1.2 55
2020-03-08 13:00:00 10.4 9 Noroeste 21 Oeste 0 900.7 -1.3 59
2020-03-08 12:00:00 8.5 8 Noroeste 21 Noroeste 0 901.9 0.3 66
2020-03-08 11:00:00 7.3 8 Norte 20 Noroeste 0 902 0.7 73
2020-03-08 10:00:00 2.1 0 Calma 14 Este 0 902 1.2 88
2020-03-08 09:00:00 -0.2 2 Este 13 Sur 0 901.6 0.8 87
2020-03-08 08:00:00 -3.3 3 Sudeste 13 Este 0 901.3 0.7 90
2020-03-08 07:00:00 -2.7 4 Sudeste 17 Sur 0 900.8 -0.2 92
2020-03-08 06:00:00 -3 0 Calma 13 Sur 0 900.8 -0.4 91
2020-03-08 05:00:00 -2.1 6 Sudeste 16 Este 0 900.6 -0.9 93
2020-03-08 04:00:00 -2.2 5 Sur 15 Sur 0 901 -0.9 91
2020-03-08 03:00:00 -1.9 13 Sur 19 Sur 0 901.2 -1.2 92
2020-03-08 02:00:00 -1.6 6 Sur 16 Este 0 901.5 -1.1 92
2020-03-08 01:00:00 -1 5 Sudeste 19 Este 0 901.9 -0.3 91
2020-03-08 00:00:00 -0.2 3 Este 16 Sur 0 902.4 0.4 90
2020-03-07 23:00:00 0.2 3 Sudeste 10 Sudoeste 0 902.6 0.7 89
2020-03-07 22:00:00 1.3 3 Sudeste 13 Sur 0 902.2 0.7 84
2020-03-07 21:00:00 3 5 Sur 12 Sur 0 902 0.5 80
2020-03-07 20:00:00 5.2 6 Noroeste 11 Noroeste 0 901.9 0.6 70
2020-03-07 19:00:00 7 8 Noroeste 28 Noroeste 0 901.5 0.2 65
2020-03-07 18:00:00 7.9 12 Noroeste 39 Noroeste 0 901.5 0.4 61
2020-03-07 17:00:00 9.5 18 Noroeste 38 Noroeste 0 901.3 -0.3 58
2020-03-07 16:00:00 8.9 15 Noroeste 36 Oeste 0 901.3 -0.8 62
2020-03-07 15:00:00 9.5 23 Noroeste 37 Noroeste 0 901.1 -1.3 59
2020-03-07 14:00:00 8.1 12 Noroeste 36 Noroeste 0 901.6 -0.6 64
2020-03-07 13:00:00 7.6 21 Noroeste 44 Oeste 0 902.1 0.5 71
2020-03-07 12:00:00 5.5 11 Oeste 29 Oeste 0 902.4 1.1 85
2020-03-07 11:00:00 3.2 12 Oeste 39 Oeste 0 902.2 1.6 91
2020-03-07 10:00:00 1.8 18 Oeste 36 Oeste 0 901.6 1.7 92
2020-03-07 09:00:00 0.5 16 Oeste 31 Oeste 0.4 901.3 1.9 93
2020-03-07 08:00:00 0.2 17 Oeste 37 Oeste 0 900.6 1.3 92
2020-03-07 07:00:00 0.3 20 Oeste 40 Oeste 0.2 899.9 0.8 91
2020-03-07 06:00:00 0.3 21 Oeste 42 Oeste 0 899.4 0.2 92
2020-03-07 05:00:00 0.5 17 Noroeste 44 Oeste 0 899.3 -0.2 89
2020-03-07 04:00:00 0.8 25 Oeste 51 Noroeste 0 899.1 -0.6 85
2020-03-07 03:00:00 1.5 22 Oeste 39 Oeste 0 899.2 -0.3 72
2020-03-07 02:00:00 1.4 12 Oeste 37 Oeste 0 899.5 0.8 69
2020-03-07 01:00:00 2 23 Oeste 45 Oeste 0 899.7 1.1 66
2020-03-07 00:00:00 2.2 20 Noroeste 47 Noroeste 0 899.5 1.6 69
2020-03-06 23:00:00 2 22 Noroeste 45 Noroeste 0 898.7 1.2 70
2020-03-06 22:00:00 1.4 20 Noroeste 59 Noroeste 0 898.6 2 73
2020-03-06 21:00:00 2 32 Norte 59 Norte 0 897.9 2.3 61
2020-03-06 20:00:00 1.7 29 Noroeste 58 Noroeste 0 897.5 2.9 63
2020-03-06 19:00:00 2.5 26 Noroeste 58 Noroeste 0 896.6 2.6 62
2020-03-06 18:00:00 3.2 30 Noroeste 57 Noroeste 0 895.6 1.8 60
2020-03-06 17:00:00 4.3 27 Noroeste 50 Norte 0 894.6 0.7 55
2020-03-06 16:00:00 4.3 25 Noroeste 46 Noroeste 0 894 0 55
2020-03-06 15:00:00 3.6 28 Norte 54 Noroeste 0 893.8 0.5 54
2020-03-06 14:00:00 3.2 26 Noroeste 57 Noroeste 0 893.9 1.9 61
2020-03-06 13:00:00 2.5 19 Noroeste 35 Noroeste 1.2 894 2.6 78
2020-03-06 12:00:00 0.1 19 Noroeste 55 Noroeste 0 893.3 2.5 92
2020-03-06 11:00:00 2.6 26 Oeste 57 Oeste 0 892 1.8 76
2020-03-06 10:00:00 1.9 25 Oeste 60 Oeste 0 891.4 2.1 79
2020-03-06 09:00:00 1.1 19 Noroeste 50 Oeste 0 890.8 2 84
2020-03-06 08:00:00 1.5 28 Oeste 54 Oeste 0 890.2 1.3 81
2020-03-06 07:00:00 2.3 27 Oeste 57 Oeste 0 889.3 0 84
2020-03-06 06:00:00 2.6 27 Oeste 48 Oeste 0 888.8 -1.5 82
2020-03-06 05:00:00 2.4 21 Oeste 42 Oeste 0.2 888.9 -2 85
2020-03-06 04:00:00 1.7 13 Oeste 31 Sudoeste 0.6 889.3 -1.5 91
2020-03-06 03:00:00 1.7 13 Oeste 27 Oeste 0 890.3 -0.7 87
2020-03-06 02:00:00 1.9 15 Oeste 27 Oeste 0 890.9 0.2 85
2020-03-06 01:00:00 2.6 13 Oeste 27 Oeste 0 890.8 0.3 87
2020-03-06 00:00:00 3 13 Oeste 26 Oeste 0 891 0.8 88
2020-03-05 23:00:00 2.3 2 Sudoeste 18 Norte 0 890.7 1 89
2020-03-05 22:00:00 3 7 Oeste 18 Norte 0 890.5 1.3 88
2020-03-05 21:00:00 4.1 9 Oeste 26 Oeste 0 890.2 1.1 83
2020-03-05 20:00:00 4.8 10 Noroeste 18 Noroeste 0 889.7 1.4 84
2020-03-05 19:00:00 4.9 4 Oeste 31 Oeste 0.2 889.2 1.2 87
2020-03-05 18:00:00 4.1 15 Oeste 45 Noroeste 5 889.1 1.1 90
2020-03-05 17:00:00 8.5 23 Oeste 51 Oeste 0 888.3 0.2 63
2020-03-05 16:00:00 8.3 23 Oeste 44 Oeste 0 888 -0.2 63
2020-03-05 15:00:00 8 26 Oeste 53 Oeste 0 888 0.1 61
2020-03-05 14:00:00 8.7 23 Oeste 65 Oeste 0 888.1 0.6 66
2020-03-05 13:00:00 8.4 32 Oeste 61 Oeste 0 888.2 1.7 64
2020-03-05 12:00:00 6.6 26 Oeste 60 Oeste 0.4 887.9 0.7 75
2020-03-05 11:00:00 6.9 42 Oeste 77 Oeste 2.2 887.5 0 82
2020-03-05 10:00:00 8 18 Oeste 41 Sudoeste 0.8 886.5 -1.5 88
2020-03-05 09:00:00 7.9 18 Oeste 45 Sudoeste 0 887.2 -1.7 86
2020-03-05 08:00:00 8.1 18 Oeste 53 Oeste 0.2 887.5 -2 85
2020-03-05 07:00:00 8.3 18 Oeste 45 Oeste 0.2 888 -2.3 86
2020-03-05 06:00:00 8.3 13 Oeste 33 Sudoeste 0.2 888.9 -2.8 89
2020-03-05 05:00:00 8.4 15 Oeste 34 Oeste 0.2 889.5 -3.1 90
2020-03-05 04:00:00 8.5 23 Oeste 48 Sudoeste 0 890.3 -3.1 88
2020-03-05 03:00:00 8.6 15 Oeste 37 Oeste 0 891.7 -2.5 87
2020-03-05 02:00:00 8.7 14 Oeste 35 Oeste 0 892.6 -2.2 86
2020-03-05 01:00:00 8.8 14 Oeste 32 Oeste 0 893.4 -1.8 85
2020-03-05 00:00:00 9.1 13 Oeste 28 Sudoeste 0 894.2 -1.3 82
2020-03-04 23:00:00 9.2 11 Oeste 34 Oeste 0 894.8 -0.9 81
2020-03-04 22:00:00 9.4 11 Oeste 23 Sudoeste 0 895.2 -0.5 80
2020-03-04 21:00:00 9.8 16 Oeste 34 Sudoeste 0 895.5 0.1 79
2020-03-04 20:00:00 9.8 17 Sudoeste 28 Oeste 0 895.7 -0.2 79
2020-03-04 19:00:00 10 12 Oeste 26 Sudoeste 0 895.7 -0.4 75
2020-03-04 18:00:00 10.4 14 Oeste 29 Sudoeste 0 895.4 -1.2 74
2020-03-04 17:00:00 10.3 12 Oeste 35 Oeste 0 895.9 -1.1 74
2020-03-04 16:00:00 11.1 15 Oeste 31 Sudoeste 0 896.1 -1.3 71
2020-03-04 15:00:00 10.4 16 Oeste 30 Oeste 0 896.6 -0.8 77
2020-03-04 14:00:00 10.3 14 Oeste 31 Oeste 0 897 -0.2 75
2020-03-04 13:00:00 10.3 17 Oeste 33 Noroeste 0 897.4 0.1 77
2020-03-04 12:00:00 9.6 14 Oeste 31 Oeste 0 897.4 0.6 82
2020-03-04 11:00:00 9.5 15 Oeste 33 Oeste 0 897.2 0.8 85
2020-03-04 10:00:00 8.8 22 Oeste 44 Oeste 0 897.3 1.4 87
2020-03-04 09:00:00 8.6 17 Oeste 37 Oeste 1 896.8 1 90
2020-03-04 08:00:00 8.6 15 Oeste 35 Oeste 0 896.4 0.8 91
2020-03-04 07:00:00 7.3 8 Oeste 23 Noroeste 0 895.9 0.1 93
2020-03-04 06:00:00 5.5 2 Norte 8 Sur 0 895.8 -0.6 92
2020-03-04 05:00:00 5.3 4 Sur 16 Sur 0.4 895.6 -1 91
2020-03-04 04:00:00 5.6 3 Oeste 5 Noroeste 0.6 895.8 -0.6 87
2020-03-04 03:00:00 6.6 2 Noroeste 13 Norte 0 896.4 0.3 75
2020-03-04 02:00:00 6.4 7 Noroeste 12 Noroeste 0 896.6 0.9 73
2020-03-04 01:00:00 6.8 5 Oeste 13 Oeste 0 896.4 1.4 73
2020-03-04 00:00:00 7.5 9 Oeste 23 Oeste 0 896.1 2.1 71
2020-03-03 23:00:00 7.7 12 Oeste 21 Oeste 0 895.7 2.5 70
2020-03-03 22:00:00 8.2 10 Oeste 26 Noroeste 0 895 2.8 68
2020-03-03 21:00:00 8.8 13 Noroeste 30 Noroeste 0 894 3 66
2020-03-03 20:00:00 9.7 17 Noroeste 42 Oeste 0 893.2 3.2 59
2020-03-03 19:00:00 10.9 26 Oeste 60 Noroeste 0 892.2 2.8 56
2020-03-03 18:00:00 12 29 Oeste 73 Oeste 0 891 1.9 51
2020-03-03 17:00:00 13.2 40 Oeste 90 Noroeste 0 890 0.4 48
2020-03-03 16:00:00 14 42 Oeste 78 Oeste 0 889.4 -0.7 49
2020-03-03 15:00:00 12.5 29 Oeste 63 Oeste 0 889.1 -1.2 70
2020-03-03 14:00:00 10.4 31 Oeste 53 Oeste 0 889.6 -1.1 80
2020-03-03 13:00:00 6.5 17 Oeste 37 Sudoeste 0.2 890.1 -0.3 92
2020-03-03 12:00:00 5.1 20 Oeste 45 Oeste 3.2 890.3 -0.2 92
2020-03-03 11:00:00 3.4 12 Oeste 27 Oeste 4.4 890.7 0.1 94
2020-03-03 10:00:00 0.8 3 Sudoeste 11 Este 0.4 890.4 -0.4 94
2020-03-03 09:00:00 0.3 2 Sudeste 6 Sudeste 0.6 890.5 -0.8 93
2020-03-03 08:00:00 0.1 0 Calma 7 Noroeste 0.6 890.6 -0.8 93
2020-03-03 07:00:00 0.2 4 Oeste 14 Noroeste 1 890.8 -1 93
2020-03-03 06:00:00 0.7 9 Noroeste 23 Oeste 1.6 891.3 -1.3 90
2020-03-03 05:00:00 1.7 12 Oeste 32 Oeste 0.2 891.4 -1.7 87
2020-03-03 04:00:00 1.9 12 Oeste 36 Oeste 0 891.8 -1.6 84
2020-03-03 03:00:00 1.7 18 Oeste 42 Oeste 0 892.6 -0.7 83
2020-03-03 02:00:00 1.7 17 Oeste 36 Oeste 0 893.1 -0.2 81
2020-03-03 01:00:00 1.2 9 Oeste 21 Oeste 0 893.4 0.8 80
2020-03-03 00:00:00 1.3 10 Oeste 28 Oeste 0 893.3 1.7 77
2020-03-02 23:00:00 1.3 13 Oeste 27 Oeste 0 893.3 2.2 76
2020-03-02 22:00:00 1.7 11 Oeste 24 Oeste 0 892.6 2.6 72
2020-03-02 21:00:00 2.2 15 Oeste 50 Noroeste 0 891.6 3.4 60
2020-03-02 20:00:00 3.2 23 Oeste 44 Noroeste 0 891.1 3.9 53
2020-03-02 19:00:00 3.2 19 Noroeste 53 Noroeste 0 890 4 55
2020-03-02 18:00:00 5.3 25 Noroeste 60 Noroeste 0 888.2 2.4 42
2020-03-02 17:00:00 4.7 33 Noroeste 73 Noroeste 0 887.2 3 44
2020-03-02 16:00:00 5.4 32 Noroeste 59 Noroeste 0.4 886 2 56
2020-03-02 15:00:00 0.9 30 Noroeste 81 Noroeste 0.2 885.8 2.1 89
2020-03-02 14:00:00 4.4 21 Noroeste 68 Oeste 0.2 884.2 1.1 72
2020-03-02 13:00:00 6.5 27 Oeste 62 Noroeste 0 884 1.7 60
2020-03-02 12:00:00 5 30 Oeste 52 Oeste 0 883.7 2.7 69
2020-03-02 11:00:00 4.1 24 Oeste 47 Oeste 0 883.1 3.8 76
2020-03-02 10:00:00 3.6 27 Oeste 54 Noroeste 0 882.3 4.8 79
2020-03-02 09:00:00 3.5 29 Oeste 64 Oeste 0 881 4.7 77
2020-03-02 08:00:00 4.1 29 Oeste 68 Noroeste 0 879.3 4.6 76
2020-03-02 07:00:00 5.3 36 Oeste 85 Noroeste 0 877.5 2.4 70
2020-03-02 06:00:00 6.3 46 Oeste 87 Oeste 4.8 876.3 -0.5 82
2020-03-02 05:00:00 8.2 31 Oeste 80 Sudoeste 2.4 874.7 -3.3 87
2020-03-02 04:00:00 8.3 38 Oeste 89 Oeste 1.4 875.1 -4 85
2020-03-02 03:00:00 8.1 35 Oeste 73 Sudoeste 1.8 876.8 -4.3 89
2020-03-02 02:00:00 8 35 Oeste 95 Oeste 2 878 -4.8 86
2020-03-02 01:00:00 8.4 37 Oeste 78 Oeste 3 879.1 -4.9 83
2020-03-02 00:00:00 7.7 20 Oeste 49 Oeste 4.2 881.1 -4 88
2020-03-01 23:00:00 6.5 3 Noroeste 14 Oeste 5.2 882.8 -3.3 89
2020-03-01 22:00:00 6.9 7 Oeste 33 Sudoeste 3.2 884 -1.9 84
2020-03-01 21:00:00 8.5 19 Oeste 55 Sudoeste 0.2 885.1 -1 65
2020-03-01 20:00:00 9.5 13 Oeste 39 Oeste 0 886.1 -0.5 54
2020-03-01 19:00:00 10.3 21 Oeste 41 Oeste 0 885.9 -1 56
2020-03-01 18:00:00 10.6 12 Oeste 36 Oeste 0 886.1 -1.4 56
2020-03-01 17:00:00 10.8 18 Oeste 45 Sudoeste 0 886.6 -2.3 62
2020-03-01 16:00:00 10.9 22 Oeste 46 Oeste 0 886.9 -2.8 56
2020-03-01 15:00:00 11 24 Oeste 46 Oeste 0 887.5 -2.1 58
2020-03-01 14:00:00 10.1 23 Oeste 49 Oeste 0 888.9 -0.4 60
2020-03-01 13:00:00 9.1 18 Oeste 46 Oeste 0 889.7 0.4 67
2020-03-01 12:00:00 7.6 21 Oeste 41 Oeste 0 889.6 1 79
2020-03-01 11:00:00 6.4 18 Oeste 33 Noroeste 0 889.3 1.1 86
2020-03-01 10:00:00 5.9 14 Oeste 39 Oeste 0.4 889.3 0.6 86
2020-03-01 09:00:00 5.1 24 Oeste 42 Oeste 0.6 888.6 -0.4 88
2020-03-01 08:00:00 4.6 10 Oeste 42 Sudoeste 0.2 888.2 -0.2 88
2020-03-01 07:00:00 4.3 9 Oeste 35 Oeste 0.2 888.7 0 87
2020-03-01 06:00:00 4.3 19 Oeste 46 Oeste 0.4 889 -0.2 89
2020-03-01 05:00:00 4.2 15 Oeste 33 Oeste 0.8 888.4 -1.2 88
2020-03-01 04:00:00 4.4 18 Oeste 43 Oeste 0.2 888.7 -1.3 86
2020-03-01 03:00:00 4.6 14 Oeste 40 Sudoeste 0.2 889.2 -0.8 87
2020-03-01 02:00:00 4.8 17 Oeste 34 Oeste 0 889.6 -0.8 81
2020-03-01 01:00:00 4.8 14 Oeste 34 Sudoeste 0.2 890 -0.3 80
2020-03-01 00:00:00 5.3 18 Oeste 36 Oeste 0 890 0.1 70
2020-02-29 23:00:00 5.5 18 Oeste 37 Oeste 0 890.4 0.8 67
2020-02-29 22:00:00 5.9 18 Oeste 40 Oeste 0 890.3 1.2 65
2020-02-29 21:00:00 6.3 13 Oeste 46 Oeste 0 889.9 1.9 65
2020-02-29 20:00:00 6.9 20 Oeste 51 Oeste 0 889.6 1.7 64
2020-02-29 19:00:00 7.6 24 Oeste 54 Oeste 0 889.1 1.7 57
2020-02-29 18:00:00 8.6 27 Oeste 57 Oeste 0 888 0.9 56
2020-02-29 17:00:00 9.8 32 Oeste 66 Oeste 0 887.9 0 59
2020-02-29 16:00:00 10.7 32 Oeste 55 Oeste 0 887.4 -0.9 67
2020-02-29 15:00:00 10.8 26 Oeste 53 Oeste 0 887.1 -1.7 70
2020-02-29 14:00:00 9.4 19 Oeste 44 Sudoeste 0.2 887.9 -1 83
2020-02-29 13:00:00 9 19 Oeste 48 Oeste 0 888.3 -0.3 77
2020-02-29 12:00:00 8.3 19 Oeste 44 Sudoeste 0 888.8 0.3 79
2020-02-29 11:00:00 7.7 19 Oeste 46 Oeste 0 888.9 0.4 68
2020-02-29 10:00:00 7.1 18 Oeste 47 Sudoeste 0 888.6 0.3 66
2020-02-29 09:00:00 6.5 19 Oeste 44 Oeste 0 888.5 -0.2 67
2020-02-29 08:00:00 6 13 Oeste 36 Sudoeste 0 888.5 -0.6 60
2020-02-29 07:00:00 6.4 21 Oeste 52 Oeste 0 888.3 -1.1 56
2020-02-29 06:00:00 7.2 16 Oeste 40 Oeste 0 888.7 -1.2 60
2020-02-29 05:00:00 4.8 7 Oeste 12 Oeste 0 889.1 -1.4 66
2020-02-29 04:00:00 2.4 6 Oeste 17 Sudeste 0 889.4 -2.1 75
2020-02-29 03:00:00 1.2 3 Norte 18 Oeste 0 889.9 -2.3 75
2020-02-29 02:00:00 7.4 6 Sudoeste 21 Oeste 0 890.5 -2.2 56
2020-02-29 01:00:00 7.8 6 Oeste 18 Sudoeste 0 891.5 -1.6 53
2020-02-29 00:00:00 8.3 10 Sudoeste 27 Sudoeste 0 892.2 -0.9 50
2020-02-28 23:00:00 4.9 12 Sur 21 Sudoeste 0 892.7 -0.5 64
2020-02-28 22:00:00 6.6 8 Sur 12 Sur 0 893.1 -0.5 57
2020-02-28 21:00:00 5.4 0 Calma 13 Sur 0 893.1 -0.9 60
2020-02-28 20:00:00 8.4 5 Sur 12 Sur 0 893.2 -1.4 47
2020-02-28 19:00:00 12 5 Sur 11 Sudoeste 0 893.6 -2.1 31
2020-02-28 18:00:00 14.8 6 Sur 16 Sudoeste 0 894 -2.6 25
2020-02-28 17:00:00 15.3 5 Sur 19 Sudoeste 0 894.6 -2.8 22
2020-02-28 16:00:00 15.5 9 Sudoeste 26 Sudoeste 0 895.7 -3.1 20
2020-02-28 15:00:00 14.9 11 Oeste 24 Oeste 0 896.6 -3.1 25
2020-02-28 14:00:00 13.1 5 Este 19 Nordeste 0 897.4 -2 35
2020-02-28 13:00:00 12.2 5 Noroeste 17 Noroeste 0 898.8 -0.9 39
2020-02-28 12:00:00 10.5 11 Noroeste 21 Noroeste 0 899.7 -0.2 45
2020-02-28 11:00:00 7.6 3 Nordeste 6 Norte 0 899.4 -0.2 67
2020-02-28 10:00:00 3.3 0 Calma 12 Sur 0 899.7 -0.1 82
2020-02-28 09:00:00 -0.7 3 Sur 10 Sur 0 899.9 0 91
2020-02-28 08:00:00 -1.7 4 Sudeste 12 Sur 0 899.6 -0.3 91
2020-02-28 07:00:00 -1.8 3 Sudeste 16 Sur 0 899.8 -0.1 92
2020-02-28 06:00:00 -1.8 4 Sudeste 8 Sudeste 0 899.9 -0.2 92
2020-02-28 05:00:00 -1.4 4 Sudeste 9 Sur 0 899.9 -0.2 92
2020-02-28 04:00:00 -1 2 Sudeste 15 Sur 0 899.9 -0.2 88
2020-02-28 03:00:00 0.1 4 Sudeste 13 Sur 0 900.1 0 89
2020-02-28 02:00:00 0.6 2 Norte 12 Este 0 900.1 0.5 82
2020-02-28 01:00:00 3.2 2 Oeste 13 Sudoeste 0 900.1 0.8 74
2020-02-28 00:00:00 5 2 Sudoeste 10 Noroeste 0 900.1 0.9 72